Hanamaulu, HI

6:57 PM HST on October 20, 2014 (GMT -1000)
Lihue | Change Station
CLOSE
Current Station
Airport
Location: Lihue,
Elevation: 102 ft
Nearby Weather Stations
Active Advisory: High Surf Advisory

Elev 102 ft 21.98 °N, 159.34 °W | Updated 4 minutes ago

Partly Cloudy
Partly Cloudy
80 °F
Feels Like 84 °F
N
13
Wind Variable Wind from East

Today
High -- | Low -- °F
--% Chance of Precip.
Yesterday
High -- | Low -- °F
Precip. -- in
6:35 AM 6:08 PM
Waning Crescent, 7% visible
Pressure 29.99 in
Visibility 10.0 miles
Clouds Few 1900 ft
Heat Index 84 °F
Dew Point 72 °F
Humidity 76%
Rainfall 0.00 in
Snow Depth Not available.
UV 0 out of 12
Pollen Not available.
Air Quality Not available.
Flu Activity Sporadic
METAR PHLI 210453Z 08011KT 10SM FEW019 27/22 A3000 RMK AO2 SLP155 T02670222

More Conditions Fewer Conditions

Pressure 29.99 in
Visibility 10.0 miles
Clouds Few 1900 ft
Heat Index 84 °F
Dew Point 72 °F
Humidity 76%
Rainfall 0.00 in
Snow Depth Not available.
UV 0 out of 12
Pollen Not available.
Air Quality Not available.
Flu Activity Sporadic
METAR PHLI 210453Z 08011KT 10SM FEW019 27/22 A3000 RMK AO2 SLP155 T02670222

More Conditions Fewer Conditions

10-Day Weather Forecast

Almanac

Astronomy

Oct. 20, 2014 Rise Set
Actual Time 6:35 AM HST 6:08 PM HST
Civil Twilight 6:12 AM HST 6:30 PM HST
Nautical Twilight 5:46 AM HST 6:57 PM HST
Astronomical Twilight 5:20 AM HST 7:23 PM HST
Moon 3:55 AM HST (10/20) 4:19 PM HST (10/20)
Length of Visible Light 12h 17m
Length of Day
11h 32m
Tomorrow will be 1m 10s shorter.
Waning Crescent, 7% of the Moon is Illuminated
Oct 21
Waning Crescent
Oct 23
New
Oct 30
First Quarter
Nov 6
Full
Nov 14
Last Quarter

Yesterday's Extremes

State Highs State Lows

Community

WunderPhotos

Upload Photos

1,763,610 photos uploaded!

Nearby

Snow Depth

Station Depth Elevation
No new snow has been reported.

Earthquake Activity

City Distance Mag. Time & Date
No recent earthquake activity has been reported nearby.
Minimum magnitude displayed is 2.5.

Coastal Water Temperatures

Place Temperature
No Stations Reporting

Nearby Weather Stations